sensor_id;sensor_type;location;lat;lon;timestamp;temperature;humidity
5868;DHT22;2960;49.142;7.768;2024-02-04T00:00:07;9.70;87.70
5868;DHT22;2960;49.142;7.768;2024-02-04T00:02:36;9.70;87.90
5868;DHT22;2960;49.142;7.768;2024-02-04T00:05:04;9.70;87.90
5868;DHT22;2960;49.142;7.768;2024-02-04T00:07:31;9.60;87.90
5868;DHT22;2960;49.142;7.768;2024-02-04T00:09:58;9.60;88.00
5868;DHT22;2960;49.142;7.768;2024-02-04T00:12:25;9.60;88.10
5868;DHT22;2960;49.142;7.768;2024-02-04T00:14:57;9.60;88.20
5868;DHT22;2960;49.142;7.768;2024-02-04T00:17:33;9.50;88.30
5868;DHT22;2960;49.142;7.768;2024-02-04T00:20:01;9.50;88.50
5868;DHT22;2960;49.142;7.768;2024-02-04T00:22:29;9.50;88.60
5868;DHT22;2960;49.142;7.768;2024-02-04T00:24:56;9.50;88.60
5868;DHT22;2960;49.142;7.768;2024-02-04T00:27:27;9.50;88.60
5868;DHT22;2960;49.142;7.768;2024-02-04T00:29:54;9.50;88.70
5868;DHT22;2960;49.142;7.768;2024-02-04T00:32:21;9.50;88.90
5868;DHT22;2960;49.142;7.768;2024-02-04T00:34:49;9.50;89.00
5868;DHT22;2960;49.142;7.768;2024-02-04T00:37:16;9.50;89.00
5868;DHT22;2960;49.142;7.768;2024-02-04T00:39:44;9.50;89.00
5868;DHT22;2960;49.142;7.768;2024-02-04T00:42:11;9.50;89.00
5868;DHT22;2960;49.142;7.768;2024-02-04T00:44:38;9.50;89.00
5868;DHT22;2960;49.142;7.768;2024-02-04T00:47:05;9.50;88.90
5868;DHT22;2960;49.142;7.768;2024-02-04T00:49:32;9.50;89.00
5868;DHT22;2960;49.142;7.768;2024-02-04T00:52:01;9.40;89.00
5868;DHT22;2960;49.142;7.768;2024-02-04T00:54:28;9.40;89.20
5868;DHT22;2960;49.142;7.768;2024-02-04T00:56:55;9.40;90.00
5868;DHT22;2960;49.142;7.768;2024-02-04T00:59:23;9.40;89.30
5868;DHT22;2960;49.142;7.768;2024-02-04T01:01:50;9.50;89.80
5868;DHT22;2960;49.142;7.768;2024-02-04T01:04:17;9.50;89.40
5868;DHT22;2960;49.142;7.768;2024-02-04T01:06:44;9.50;89.20
5868;DHT22;2960;49.142;7.768;2024-02-04T01:09:12;9.40;89.20
5868;DHT22;2960;49.142;7.768;2024-02-04T01:11:39;9.40;89.30
5868;DHT22;2960;49.142;7.768;2024-02-04T01:14:06;9.40;89.40
5868;DHT22;2960;49.142;7.768;2024-02-04T01:16:33;9.40;89.40
5868;DHT22;2960;49.142;7.768;2024-02-04T01:19:01;9.50;90.10
5868;DHT22;2960;49.142;7.768;2024-02-04T01:21:28;9.40;89.40
5868;DHT22;2960;49.142;7.768;2024-02-04T01:23:55;9.40;89.40
5868;DHT22;2960;49.142;7.768;2024-02-04T01:26:24;9.40;89.40
5868;DHT22;2960;49.142;7.768;2024-02-04T01:28:51;9.40;89.40
5868;DHT22;2960;49.142;7.768;2024-02-04T01:31:18;9.40;89.40
5868;DHT22;2960;49.142;7.768;2024-02-04T01:33:46;9.50;89.50
5868;DHT22;2960;49.142;7.768;2024-02-04T01:36:13;9.50;89.40
5868;DHT22;2960;49.142;7.768;2024-02-04T01:38:40;9.50;89.40
5868;DHT22;2960;49.142;7.768;2024-02-04T01:41:07;9.50;90.10
5868;DHT22;2960;49.142;7.768;2024-02-04T01:43:35;9.50;89.40
5868;DHT22;2960;49.142;7.768;2024-02-04T01:46:03;9.50;89.40
5868;DHT22;2960;49.142;7.768;2024-02-04T01:48:30;9.50;89.40
5868;DHT22;2960;49.142;7.768;2024-02-04T01:50:58;9.50;89.50
5868;DHT22;2960;49.142;7.768;2024-02-04T01:53:26;9.50;89.50
5868;DHT22;2960;49.142;7.768;2024-02-04T01:55:55;9.50;89.50
5868;DHT22;2960;49.142;7.768;2024-02-04T01:58:23;9.40;89.40
5868;DHT22;2960;49.142;7.768;2024-02-04T02:00:52;9.40;89.60
5868;DHT22;2960;49.142;7.768;2024-02-04T02:03:19;9.40;89.70
5868;DHT22;2960;49.142;7.768;2024-02-04T02:05:49;9.40;89.80
5868;DHT22;2960;49.142;7.768;2024-02-04T02:08:16;9.40;89.80
5868;DHT22;2960;49.142;7.768;2024-02-04T02:10:48;9.40;89.90
5868;DHT22;2960;49.142;7.768;2024-02-04T02:13:17;9.40;90.00
5868;DHT22;2960;49.142;7.768;2024-02-04T02:15:50;9.30;90.00
5868;DHT22;2960;49.142;7.768;2024-02-04T02:18:25;9.30;90.10
5868;DHT22;2960;49.142;7.768;2024-02-04T02:21:07;9.30;90.10
5868;DHT22;2960;49.142;7.768;2024-02-04T02:23:51;9.30;90.10
5868;DHT22;2960;49.142;7.768;2024-02-04T02:26:32;9.30;90.10
5868;DHT22;2960;49.142;7.768;2024-02-04T02:28:59;9.30;90.10
5868;DHT22;2960;49.142;7.768;2024-02-04T02:31:27;9.30;90.10
5868;DHT22;2960;49.142;7.768;2024-02-04T02:33:54;9.30;90.10
5868;DHT22;2960;49.142;7.768;2024-02-04T02:36:21;9.30;90.20
5868;DHT22;2960;49.142;7.768;2024-02-04T02:38:55;9.30;90.20
5868;DHT22;2960;49.142;7.768;2024-02-04T02:41:28;9.30;90.60
5868;DHT22;2960;49.142;7.768;2024-02-04T02:43:59;9.30;90.30
5868;DHT22;2960;49.142;7.768;2024-02-04T02:46:27;9.30;90.40
5868;DHT22;2960;49.142;7.768;2024-02-04T02:48:54;9.20;90.40
5868;DHT22;2960;49.142;7.768;2024-02-04T02:51:22;9.20;90.50
5868;DHT22;2960;49.142;7.768;2024-02-04T02:53:49;9.20;90.50
5868;DHT22;2960;49.142;7.768;2024-02-04T02:56:16;9.20;90.50
5868;DHT22;2960;49.142;7.768;2024-02-04T02:58:43;9.20;90.50
5868;DHT22;2960;49.142;7.768;2024-02-04T03:01:11;9.20;90.90
5868;DHT22;2960;49.142;7.768;2024-02-04T03:03:38;9.20;90.50
5868;DHT22;2960;49.142;7.768;2024-02-04T03:06:06;9.20;90.50
5868;DHT22;2960;49.142;7.768;2024-02-04T03:08:33;9.20;90.50
5868;DHT22;2960;49.142;7.768;2024-02-04T03:11:00;9.20;90.50
5868;DHT22;2960;49.142;7.768;2024-02-04T03:13:27;9.20;90.50
5868;DHT22;2960;49.142;7.768;2024-02-04T03:15:56;9.20;90.50
5868;DHT22;2960;49.142;7.768;2024-02-04T03:18:24;9.20;90.60
5868;DHT22;2960;49.142;7.768;2024-02-04T03:20:52;9.20;90.60
5868;DHT22;2960;49.142;7.768;2024-02-04T03:23:19;9.20;90.60
5868;DHT22;2960;49.142;7.768;2024-02-04T03:25:46;9.20;90.50
5868;DHT22;2960;49.142;7.768;2024-02-04T03:28:13;9.30;90.50
5868;DHT22;2960;49.142;7.768;2024-02-04T03:30:40;9.30;90.50
5868;DHT22;2960;49.142;7.768;2024-02-04T03:33:07;9.30;90.50
5868;DHT22;2960;49.142;7.768;2024-02-04T03:35:36;9.30;90.50
5868;DHT22;2960;49.142;7.768;2024-02-04T03:38:03;9.30;90.50
5868;DHT22;2960;49.142;7.768;2024-02-04T03:40:30;9.20;90.50
5868;DHT22;2960;49.142;7.768;2024-02-04T03:42:57;9.30;90.50
5868;DHT22;2960;49.142;7.768;2024-02-04T03:45:24;9.20;90.50
5868;DHT22;2960;49.142;7.768;2024-02-04T03:47:51;9.20;90.50
5868;DHT22;2960;49.142;7.768;2024-02-04T03:50:18;9.30;90.50
5868;DHT22;2960;49.142;7.768;2024-02-04T03:52:47;9.30;90.50
5868;DHT22;2960;49.142;7.768;2024-02-04T03:55:14;9.30;90.80
5868;DHT22;2960;49.142;7.768;2024-02-04T03:57:41;9.30;90.40
5868;DHT22;2960;49.142;7.768;2024-02-04T04:00:09;9.30;90.40
5868;DHT22;2960;49.142;7.768;2024-02-04T04:02:37;9.30;90.50
5868;DHT22;2960;49.142;7.768;2024-02-04T04:05:05;9.30;90.50
5868;DHT22;2960;49.142;7.768;2024-02-04T04:07:33;9.30;90.50
5868;DHT22;2960;49.142;7.768;2024-02-04T04:10:02;9.30;90.50
5868;DHT22;2960;49.142;7.768;2024-02-04T04:12:29;9.30;90.50
5868;DHT22;2960;49.142;7.768;2024-02-04T04:14:56;9.30;90.50
5868;DHT22;2960;49.142;7.768;2024-02-04T04:17:23;9.30;90.50
5868;DHT22;2960;49.142;7.768;2024-02-04T04:19:51;9.30;90.80
5868;DHT22;2960;49.142;7.768;2024-02-04T04:22:18;9.30;90.50
5868;DHT22;2960;49.142;7.768;2024-02-04T04:24:45;9.30;90.50
5868;DHT22;2960;49.142;7.768;2024-02-04T04:27:14;9.30;90.50
5868;DHT22;2960;49.142;7.768;2024-02-04T04:29:41;9.30;90.60
5868;DHT22;2960;49.142;7.768;2024-02-04T04:32:10;9.30;90.60
5868;DHT22;2960;49.142;7.768;2024-02-04T04:34:37;9.30;90.60
5868;DHT22;2960;49.142;7.768;2024-02-04T04:37:04;9.30;90.60
5868;DHT22;2960;49.142;7.768;2024-02-04T04:39:32;9.30;90.60
5868;DHT22;2960;49.142;7.768;2024-02-04T04:41:59;9.30;90.60
5868;DHT22;2960;49.142;7.768;2024-02-04T04:44:27;9.30;90.60
5868;DHT22;2960;49.142;7.768;2024-02-04T04:46:54;9.30;91.00
5868;DHT22;2960;49.142;7.768;2024-02-04T04:49:22;9.30;90.70
5868;DHT22;2960;49.142;7.768;2024-02-04T04:51:49;9.20;90.70
5868;DHT22;2960;49.142;7.768;2024-02-04T04:54:16;9.20;90.70
5868;DHT22;2960;49.142;7.768;2024-02-04T04:56:43;9.20;90.80
5868;DHT22;2960;49.142;7.768;2024-02-04T04:59:10;9.20;91.20
5868;DHT22;2960;49.142;7.768;2024-02-04T05:01:45;9.20;90.90
5868;DHT22;2960;49.142;7.768;2024-02-04T05:04:13;9.20;91.00
5868;DHT22;2960;49.142;7.768;2024-02-04T05:06:40;9.20;91.00
5868;DHT22;2960;49.142;7.768;2024-02-04T05:09:07;9.20;91.00
5868;DHT22;2960;49.142;7.768;2024-02-04T05:11:35;9.20;91.30
5868;DHT22;2960;49.142;7.768;2024-02-04T05:14:02;9.20;91.00
5868;DHT22;2960;49.142;7.768;2024-02-04T05:16:30;9.20;90.90
5868;DHT22;2960;49.142;7.768;2024-02-04T05:18:58;9.30;91.00
5868;DHT22;2960;49.142;7.768;2024-02-04T05:21:25;9.30;90.90
5868;DHT22;2960;49.142;7.768;2024-02-04T05:23:52;9.20;90.90
5868;DHT22;2960;49.142;7.768;2024-02-04T05:26:20;9.20;91.00
5868;DHT22;2960;49.142;7.768;2024-02-04T05:28:47;9.20;91.30
5868;DHT22;2960;49.142;7.768;2024-02-04T05:31:14;9.20;91.00
5868;DHT22;2960;49.142;7.768;2024-02-04T05:33:44;9.40;91.10
5868;DHT22;2960;49.142;7.768;2024-02-04T05:36:12;9.20;91.00
5868;DHT22;2960;49.142;7.768;2024-02-04T05:38:42;9.20;91.00
5868;DHT22;2960;49.142;7.768;2024-02-04T05:41:11;9.20;91.00
5868;DHT22;2960;49.142;7.768;2024-02-04T05:43:39;9.20;91.00
5868;DHT22;2960;49.142;7.768;2024-02-04T05:46:06;9.20;90.90
5868;DHT22;2960;49.142;7.768;2024-02-04T05:48:33;9.20;90.90
5868;DHT22;2960;49.142;7.768;2024-02-04T05:51:00;9.40;91.10
5868;DHT22;2960;49.142;7.768;2024-02-04T05:53:31;9.20;90.90
5868;DHT22;2960;49.142;7.768;2024-02-04T05:55:58;9.20;90.90
5868;DHT22;2960;49.142;7.768;2024-02-04T05:58:25;9.20;90.90
5868;DHT22;2960;49.142;7.768;2024-02-04T06:00:52;9.20;91.00
5868;DHT22;2960;49.142;7.768;2024-02-04T06:03:19;9.20;90.90
5868;DHT22;2960;49.142;7.768;2024-02-04T06:05:49;9.20;91.00
5868;DHT22;2960;49.142;7.768;2024-02-04T06:08:16;9.20;91.00
5868;DHT22;2960;49.142;7.768;2024-02-04T06:10:44;9.20;91.00
5868;DHT22;2960;49.142;7.768;2024-02-04T06:13:11;9.20;91.00
5868;DHT22;2960;49.142;7.768;2024-02-04T06:15:39;9.20;91.00
5868;DHT22;2960;49.142;7.768;2024-02-04T06:18:06;9.20;91.00
5868;DHT22;2960;49.142;7.768;2024-02-04T06:20:33;9.20;91.00
5868;DHT22;2960;49.142;7.768;2024-02-04T06:23:00;9.20;91.00
5868;DHT22;2960;49.142;7.768;2024-02-04T06:25:27;9.20;91.00
5868;DHT22;2960;49.142;7.768;2024-02-04T06:27:56;9.20;91.00
5868;DHT22;2960;49.142;7.768;2024-02-04T06:30:23;9.20;91.00
5868;DHT22;2960;49.142;7.768;2024-02-04T06:32:50;9.10;91.00
5868;DHT22;2960;49.142;7.768;2024-02-04T06:35:17;9.10;91.00
5868;DHT22;2960;49.142;7.768;2024-02-04T06:37:44;9.10;91.10
5868;DHT22;2960;49.142;7.768;2024-02-04T06:40:11;9.10;91.00
5868;DHT22;2960;49.142;7.768;2024-02-04T06:42:39;9.10;91.00
5868;DHT22;2960;49.142;7.768;2024-02-04T06:45:08;9.20;91.00
5868;DHT22;2960;49.142;7.768;2024-02-04T06:47:36;9.20;91.00
5868;DHT22;2960;49.142;7.768;2024-02-04T06:50:03;9.10;91.00
5868;DHT22;2960;49.142;7.768;2024-02-04T06:52:31;9.10;91.10
5868;DHT22;2960;49.142;7.768;2024-02-04T06:54:59;9.10;91.10
5868;DHT22;2960;49.142;7.768;2024-02-04T06:57:26;9.10;91.10
5868;DHT22;2960;49.142;7.768;2024-02-04T06:59:53;9.10;91.10
5868;DHT22;2960;49.142;7.768;2024-02-04T07:02:22;9.10;91.50
5868;DHT22;2960;49.142;7.768;2024-02-04T07:04:49;9.10;91.20
5868;DHT22;2960;49.142;7.768;2024-02-04T07:07:16;9.10;91.20
5868;DHT22;2960;49.142;7.768;2024-02-04T07:09:43;9.10;91.20
5868;DHT22;2960;49.142;7.768;2024-02-04T07:12:11;9.10;91.20
5868;DHT22;2960;49.142;7.768;2024-02-04T07:14:38;9.10;91.20
5868;DHT22;2960;49.142;7.768;2024-02-04T07:17:05;9.10;91.20
5868;DHT22;2960;49.142;7.768;2024-02-04T07:19:33;9.10;91.10
5868;DHT22;2960;49.142;7.768;2024-02-04T07:22:01;9.10;91.10
5868;DHT22;2960;49.142;7.768;2024-02-04T07:24:28;9.10;91.10
5868;DHT22;2960;49.142;7.768;2024-02-04T07:26:55;9.10;91.20
5868;DHT22;2960;49.142;7.768;2024-02-04T07:29:22;9.10;91.30
5868;DHT22;2960;49.142;7.768;2024-02-04T07:31:52;9.10;91.30
5868;DHT22;2960;49.142;7.768;2024-02-04T07:34:19;9.10;91.30
5868;DHT22;2960;49.142;7.768;2024-02-04T07:36:48;9.10;91.30
5868;DHT22;2960;49.142;7.768;2024-02-04T07:39:17;9.10;91.30
5868;DHT22;2960;49.142;7.768;2024-02-04T07:41:45;9.10;91.50
5868;DHT22;2960;49.142;7.768;2024-02-04T07:44:14;9.20;91.60
5868;DHT22;2960;49.142;7.768;2024-02-04T07:46:41;9.00;91.60
5868;DHT22;2960;49.142;7.768;2024-02-04T07:49:08;9.00;91.60
5868;DHT22;2960;49.142;7.768;2024-02-04T07:51:35;9.00;91.70
5868;DHT22;2960;49.142;7.768;2024-02-04T07:54:04;9.00;91.70
5868;DHT22;2960;49.142;7.768;2024-02-04T07:56:31;9.00;91.80
5868;DHT22;2960;49.142;7.768;2024-02-04T07:58:58;9.00;91.80
5868;DHT22;2960;49.142;7.768;2024-02-04T08:01:26;9.00;91.80
5868;DHT22;2960;49.142;7.768;2024-02-04T08:03:53;9.00;91.90
5868;DHT22;2960;49.142;7.768;2024-02-04T08:06:20;9.10;91.90
5868;DHT22;2960;49.142;7.768;2024-02-04T08:08:47;9.10;91.90
5868;DHT22;2960;49.142;7.768;2024-02-04T08:11:17;9.10;91.90
5868;DHT22;2960;49.142;7.768;2024-02-04T08:13:45;9.10;91.80
5868;DHT22;2960;49.142;7.768;2024-02-04T08:16:12;9.10;91.80
5868;DHT22;2960;49.142;7.768;2024-02-04T08:18:39;9.10;91.80
5868;DHT22;2960;49.142;7.768;2024-02-04T08:21:07;9.10;91.80
5868;DHT22;2960;49.142;7.768;2024-02-04T08:23:34;9.10;91.80
5868;DHT22;2960;49.142;7.768;2024-02-04T08:26:01;9.10;91.90
5868;DHT22;2960;49.142;7.768;2024-02-04T08:28:30;9.10;91.90
5868;DHT22;2960;49.142;7.768;2024-02-04T08:30:57;9.10;91.90
5868;DHT22;2960;49.142;7.768;2024-02-04T08:33:29;9.10;91.90
5868;DHT22;2960;49.142;7.768;2024-02-04T08:35:56;9.10;91.80
5868;DHT22;2960;49.142;7.768;2024-02-04T08:38:23;9.10;91.90
5868;DHT22;2960;49.142;7.768;2024-02-04T08:40:50;9.20;92.10
5868;DHT22;2960;49.142;7.768;2024-02-04T08:43:17;9.20;92.10
5868;DHT22;2960;49.142;7.768;2024-02-04T08:45:46;9.30;92.00
5868;DHT22;2960;49.142;7.768;2024-02-04T08:48:13;9.30;91.90
5868;DHT22;2960;49.142;7.768;2024-02-04T08:50:43;9.20;91.80
5868;DHT22;2960;49.142;7.768;2024-02-04T08:53:10;9.20;91.80
5868;DHT22;2960;49.142;7.768;2024-02-04T08:55:37;9.20;91.80
5868;DHT22;2960;49.142;7.768;2024-02-04T08:58:05;9.20;91.80
5868;DHT22;2960;49.142;7.768;2024-02-04T09:00:32;9.20;91.70
5868;DHT22;2960;49.142;7.768;2024-02-04T09:03:01;9.20;91.70
5868;DHT22;2960;49.142;7.768;2024-02-04T09:05:28;9.30;91.80
5868;DHT22;2960;49.142;7.768;2024-02-04T09:07:55;9.20;91.80
5868;DHT22;2960;49.142;7.768;2024-02-04T09:10:24;9.20;91.80
5868;DHT22;2960;49.142;7.768;2024-02-04T09:12:51;9.20;91.80
5868;DHT22;2960;49.142;7.768;2024-02-04T09:15:19;9.20;91.80
5868;DHT22;2960;49.142;7.768;2024-02-04T09:17:46;9.20;91.80
5868;DHT22;2960;49.142;7.768;2024-02-04T09:20:15;9.20;91.80
5868;DHT22;2960;49.142;7.768;2024-02-04T09:22:43;9.20;91.80
5868;DHT22;2960;49.142;7.768;2024-02-04T09:25:10;9.20;91.90
5868;DHT22;2960;49.142;7.768;2024-02-04T09:27:37;9.20;91.80
5868;DHT22;2960;49.142;7.768;2024-02-04T09:30:05;9.20;91.80
5868;DHT22;2960;49.142;7.768;2024-02-04T09:32:33;9.20;91.80
5868;DHT22;2960;49.142;7.768;2024-02-04T09:35:00;9.10;91.70
5868;DHT22;2960;49.142;7.768;2024-02-04T09:37:29;9.10;91.80
5868;DHT22;2960;49.142;7.768;2024-02-04T09:39:56;9.10;91.80
5868;DHT22;2960;49.142;7.768;2024-02-04T09:42:23;9.10;91.80
5868;DHT22;2960;49.142;7.768;2024-02-04T09:44:50;9.10;91.90
5868;DHT22;2960;49.142;7.768;2024-02-04T09:47:18;9.10;92.00
5868;DHT22;2960;49.142;7.768;2024-02-04T09:49:45;9.10;92.00
5868;DHT22;2960;49.142;7.768;2024-02-04T09:52:13;9.10;92.00
5868;DHT22;2960;49.142;7.768;2024-02-04T09:54:49;9.20;92.10
5868;DHT22;2960;49.142;7.768;2024-02-04T09:57:17;9.20;92.00
5868;DHT22;2960;49.142;7.768;2024-02-04T09:59:45;9.20;92.00
5868;DHT22;2960;49.142;7.768;2024-02-04T10:02:15;9.20;92.00
5868;DHT22;2960;49.142;7.768;2024-02-04T10:04:42;9.30;92.00
5868;DHT22;2960;49.142;7.768;2024-02-04T10:07:09;9.20;91.90
5868;DHT22;2960;49.142;7.768;2024-02-04T10:09:39;9.30;92.00
5868;DHT22;2960;49.142;7.768;2024-02-04T10:12:08;9.30;91.90
5868;DHT22;2960;49.142;7.768;2024-02-04T10:14:35;9.30;91.80
5868;DHT22;2960;49.142;7.768;2024-02-04T10:17:04;9.30;91.70
5868;DHT22;2960;49.142;7.768;2024-02-04T10:19:31;9.30;91.80
5868;DHT22;2960;49.142;7.768;2024-02-04T10:21:59;9.30;91.80
5868;DHT22;2960;49.142;7.768;2024-02-04T10:24:27;9.30;92.00
5868;DHT22;2960;49.142;7.768;2024-02-04T10:26:54;9.30;92.00
5868;DHT22;2960;49.142;7.768;2024-02-04T10:29:23;9.40;92.00
5868;DHT22;2960;49.142;7.768;2024-02-04T10:31:53;9.40;92.20
5868;DHT22;2960;49.142;7.768;2024-02-04T10:34:22;9.40;91.90
5868;DHT22;2960;49.142;7.768;2024-02-04T10:36:49;9.40;91.90
5868;DHT22;2960;49.142;7.768;2024-02-04T10:39:16;9.40;91.80
5868;DHT22;2960;49.142;7.768;2024-02-04T10:41:49;9.40;91.90
5868;DHT22;2960;49.142;7.768;2024-02-04T10:44:19;9.40;91.80
5868;DHT22;2960;49.142;7.768;2024-02-04T10:46:51;9.40;92.10
5868;DHT22;2960;49.142;7.768;2024-02-04T10:49:20;9.40;91.80
5868;DHT22;2960;49.142;7.768;2024-02-04T10:51:47;9.40;91.80
5868;DHT22;2960;49.142;7.768;2024-02-04T10:54:16;9.40;91.80
5868;DHT22;2960;49.142;7.768;2024-02-04T10:56:45;9.50;91.80
5868;DHT22;2960;49.142;7.768;2024-02-04T10:59:15;9.50;91.80
5868;DHT22;2960;49.142;7.768;2024-02-04T11:01:45;9.50;91.70
5868;DHT22;2960;49.142;7.768;2024-02-04T11:04:16;9.50;91.70
5868;DHT22;2960;49.142;7.768;2024-02-04T11:06:44;9.50;91.70
5868;DHT22;2960;49.142;7.768;2024-02-04T11:09:12;9.50;91.70
5868;DHT22;2960;49.142;7.768;2024-02-04T11:11:41;9.50;91.70
5868;DHT22;2960;49.142;7.768;2024-02-04T11:14:11;9.50;91.70
5868;DHT22;2960;49.142;7.768;2024-02-04T11:16:57;9.50;91.70
5868;DHT22;2960;49.142;7.768;2024-02-04T11:19:43;9.50;91.70
5868;DHT22;2960;49.142;7.768;2024-02-04T11:25:43;9.50;91.70
5868;DHT22;2960;49.142;7.768;2024-02-04T11:28:12;9.50;91.70
5868;DHT22;2960;49.142;7.768;2024-02-04T11:30:40;9.50;91.80
5868;DHT22;2960;49.142;7.768;2024-02-04T11:33:11;9.60;91.80
5868;DHT22;2960;49.142;7.768;2024-02-04T11:35:40;9.60;91.80
5868;DHT22;2960;49.142;7.768;2024-02-04T11:38:08;9.70;91.80
5868;DHT22;2960;49.142;7.768;2024-02-04T11:40:37;9.70;91.70
5868;DHT22;2960;49.142;7.768;2024-02-04T11:43:06;9.70;91.60
5868;DHT22;2960;49.142;7.768;2024-02-04T11:45:37;9.70;91.60
5868;DHT22;2960;49.142;7.768;2024-02-04T11:48:07;9.80;91.60
5868;DHT22;2960;49.142;7.768;2024-02-04T11:50:35;9.80;91.60
5868;DHT22;2960;49.142;7.768;2024-02-04T11:53:09;9.80;91.50
5868;DHT22;2960;49.142;7.768;2024-02-04T11:55:40;9.80;91.50
5868;DHT22;2960;49.142;7.768;2024-02-04T11:58:07;9.80;91.50
5868;DHT22;2960;49.142;7.768;2024-02-04T12:00:36;9.80;91.50
5868;DHT22;2960;49.142;7.768;2024-02-04T12:03:04;9.90;91.50
5868;DHT22;2960;49.142;7.768;2024-02-04T12:05:33;9.90;91.50
5868;DHT22;2960;49.142;7.768;2024-02-04T12:08:02;9.80;91.30
5868;DHT22;2960;49.142;7.768;2024-02-04T12:10:32;9.80;91.40
5868;DHT22;2960;49.142;7.768;2024-02-04T12:13:02;9.80;91.40
5868;DHT22;2960;49.142;7.768;2024-02-04T12:15:31;9.80;91.40
5868;DHT22;2960;49.142;7.768;2024-02-04T12:18:05;9.80;91.40
5868;DHT22;2960;49.142;7.768;2024-02-04T12:20:33;9.70;91.40
5868;DHT22;2960;49.142;7.768;2024-02-04T12:23:02;9.70;91.50
5868;DHT22;2960;49.142;7.768;2024-02-04T12:25:31;9.70;91.50
5868;DHT22;2960;49.142;7.768;2024-02-04T12:28:00;9.70;91.50
5868;DHT22;2960;49.142;7.768;2024-02-04T12:30:29;9.70;91.60
5868;DHT22;2960;49.142;7.768;2024-02-04T12:32:57;9.70;91.60
5868;DHT22;2960;49.142;7.768;2024-02-04T12:35:24;9.70;91.60
5868;DHT22;2960;49.142;7.768;2024-02-04T12:37:52;9.70;91.60
5868;DHT22;2960;49.142;7.768;2024-02-04T12:40:22;9.70;91.60
5868;DHT22;2960;49.142;7.768;2024-02-04T12:42:55;9.80;91.70
5868;DHT22;2960;49.142;7.768;2024-02-04T12:45:22;9.80;91.70
5868;DHT22;2960;49.142;7.768;2024-02-04T12:47:50;9.80;91.60
5868;DHT22;2960;49.142;7.768;2024-02-04T12:50:18;9.80;91.60
5868;DHT22;2960;49.142;7.768;2024-02-04T12:52:48;9.80;91.60
5868;DHT22;2960;49.142;7.768;2024-02-04T12:55:26;9.80;91.70
5868;DHT22;2960;49.142;7.768;2024-02-04T12:58:03;9.80;91.60
5868;DHT22;2960;49.142;7.768;2024-02-04T13:00:31;9.80;91.70
5868;DHT22;2960;49.142;7.768;2024-02-04T13:02:59;9.80;91.80
5868;DHT22;2960;49.142;7.768;2024-02-04T13:05:26;9.80;91.80
5868;DHT22;2960;49.142;7.768;2024-02-04T13:07:57;9.80;91.80
5868;DHT22;2960;49.142;7.768;2024-02-04T13:10:28;9.80;91.80
5868;DHT22;2960;49.142;7.768;2024-02-04T13:13:03;9.80;91.80
5868;DHT22;2960;49.142;7.768;2024-02-04T13:15:33;9.80;91.80
5868;DHT22;2960;49.142;7.768;2024-02-04T13:18:02;9.80;91.90
5868;DHT22;2960;49.142;7.768;2024-02-04T13:20:30;9.80;91.80
5868;DHT22;2960;49.142;7.768;2024-02-04T13:22:57;9.80;91.80
5868;DHT22;2960;49.142;7.768;2024-02-04T13:25:25;9.80;92.10
5868;DHT22;2960;49.142;7.768;2024-02-04T13:27:53;9.80;91.80
5868;DHT22;2960;49.142;7.768;2024-02-04T13:30:21;9.80;91.80
5868;DHT22;2960;49.142;7.768;2024-02-04T13:32:48;9.80;92.10
5868;DHT22;2960;49.142;7.768;2024-02-04T13:35:16;9.80;91.80
5868;DHT22;2960;49.142;7.768;2024-02-04T13:37:45;9.80;91.80
5868;DHT22;2960;49.142;7.768;2024-02-04T13:40:14;9.80;91.80
5868;DHT22;2960;49.142;7.768;2024-02-04T13:42:40;9.80;91.90
5868;DHT22;2960;49.142;7.768;2024-02-04T13:45:08;9.80;91.80
5868;DHT22;2960;49.142;7.768;2024-02-04T13:47:37;9.80;91.90
5868;DHT22;2960;49.142;7.768;2024-02-04T13:50:05;9.80;91.80
5868;DHT22;2960;49.142;7.768;2024-02-04T13:52:34;9.80;91.80
5868;DHT22;2960;49.142;7.768;2024-02-04T13:55:01;9.80;91.80
5868;DHT22;2960;49.142;7.768;2024-02-04T13:57:30;9.80;91.80
5868;DHT22;2960;49.142;7.768;2024-02-04T13:59:58;9.80;91.80
5868;DHT22;2960;49.142;7.768;2024-02-04T14:02:25;9.80;92.20
5868;DHT22;2960;49.142;7.768;2024-02-04T14:04:56;9.80;91.90
5868;DHT22;2960;49.142;7.768;2024-02-04T14:07:24;9.80;91.90
5868;DHT22;2960;49.142;7.768;2024-02-04T14:09:52;9.80;91.90
5868;DHT22;2960;49.142;7.768;2024-02-04T14:12:19;9.80;91.90
5868;DHT22;2960;49.142;7.768;2024-02-04T14:14:46;9.80;91.90
5868;DHT22;2960;49.142;7.768;2024-02-04T14:17:13;9.80;92.00
5868;DHT22;2960;49.142;7.768;2024-02-04T14:19:41;9.80;92.00
5868;DHT22;2960;49.142;7.768;2024-02-04T14:22:12;9.80;92.10
5868;DHT22;2960;49.142;7.768;2024-02-04T14:24:39;9.90;92.10
5868;DHT22;2960;49.142;7.768;2024-02-04T14:27:06;9.90;92.10
5868;DHT22;2960;49.142;7.768;2024-02-04T14:29:34;9.90;92.10
5868;DHT22;2960;49.142;7.768;2024-02-04T14:32:01;9.90;92.00
5868;DHT22;2960;49.142;7.768;2024-02-04T14:34:29;9.90;92.00
5868;DHT22;2960;49.142;7.768;2024-02-04T14:36:56;9.90;92.10
5868;DHT22;2960;49.142;7.768;2024-02-04T14:39:24;9.90;92.10
5868;DHT22;2960;49.142;7.768;2024-02-04T14:41:52;9.80;92.10
5868;DHT22;2960;49.142;7.768;2024-02-04T14:44:19;9.80;92.20
5868;DHT22;2960;49.142;7.768;2024-02-04T14:46:46;9.80;92.30
5868;DHT22;2960;49.142;7.768;2024-02-04T14:49:14;9.80;92.30
5868;DHT22;2960;49.142;7.768;2024-02-04T14:51:42;9.80;92.70
5868;DHT22;2960;49.142;7.768;2024-02-04T14:54:09;9.80;92.40
5868;DHT22;2960;49.142;7.768;2024-02-04T14:56:39;9.80;92.40
5868;DHT22;2960;49.142;7.768;2024-02-04T14:59:08;9.80;92.40
5868;DHT22;2960;49.142;7.768;2024-02-04T15:01:36;9.80;92.40
5868;DHT22;2960;49.142;7.768;2024-02-04T15:04:04;9.80;92.50
5868;DHT22;2960;49.142;7.768;2024-02-04T15:06:31;9.80;92.50
5868;DHT22;2960;49.142;7.768;2024-02-04T15:08:58;9.90;92.50
5868;DHT22;2960;49.142;7.768;2024-02-04T15:11:26;9.90;92.80
5868;DHT22;2960;49.142;7.768;2024-02-04T15:13:59;9.90;92.40
5868;DHT22;2960;49.142;7.768;2024-02-04T15:16:28;9.90;92.40
5868;DHT22;2960;49.142;7.768;2024-02-04T15:18:56;9.90;92.40
5868;DHT22;2960;49.142;7.768;2024-02-04T15:21:24;9.90;92.50
5868;DHT22;2960;49.142;7.768;2024-02-04T15:23:52;9.90;92.50
5868;DHT22;2960;49.142;7.768;2024-02-04T15:26:19;9.90;92.50
5868;DHT22;2960;49.142;7.768;2024-02-04T15:28:49;9.90;92.50
5868;DHT22;2960;49.142;7.768;2024-02-04T15:31:19;9.90;92.50
5868;DHT22;2960;49.142;7.768;2024-02-04T15:33:47;9.90;92.50
5868;DHT22;2960;49.142;7.768;2024-02-04T15:36:14;9.90;92.50
5868;DHT22;2960;49.142;7.768;2024-02-04T15:38:41;9.90;92.50
5868;DHT22;2960;49.142;7.768;2024-02-04T15:41:09;9.90;92.50
5868;DHT22;2960;49.142;7.768;2024-02-04T15:43:36;9.90;92.50
5868;DHT22;2960;49.142;7.768;2024-02-04T15:46:07;9.90;92.60
5868;DHT22;2960;49.142;7.768;2024-02-04T15:48:39;9.90;92.60
5868;DHT22;2960;49.142;7.768;2024-02-04T15:51:09;9.80;92.60
5868;DHT22;2960;49.142;7.768;2024-02-04T15:53:37;9.80;92.70
5868;DHT22;2960;49.142;7.768;2024-02-04T15:56:05;9.80;92.70
5868;DHT22;2960;49.142;7.768;2024-02-04T15:58:35;9.80;92.70
5868;DHT22;2960;49.142;7.768;2024-02-04T16:01:09;9.80;92.70
5868;DHT22;2960;49.142;7.768;2024-02-04T16:03:39;9.80;92.70
5868;DHT22;2960;49.142;7.768;2024-02-04T16:06:08;9.80;92.80
5868;DHT22;2960;49.142;7.768;2024-02-04T16:08:36;9.80;92.80
5868;DHT22;2960;49.142;7.768;2024-02-04T16:11:05;9.80;92.80
5868;DHT22;2960;49.142;7.768;2024-02-04T16:13:42;9.80;92.80
5868;DHT22;2960;49.142;7.768;2024-02-04T16:16:13;9.80;92.80
5868;DHT22;2960;49.142;7.768;2024-02-04T16:18:43;9.80;92.80
5868;DHT22;2960;49.142;7.768;2024-02-04T16:21:10;9.80;92.80
5868;DHT22;2960;49.142;7.768;2024-02-04T16:23:37;9.80;92.70
5868;DHT22;2960;49.142;7.768;2024-02-04T16:26:04;9.80;92.90